La rose des vents
Donnes mto: Semaine 15/09/08 - 21/09/08 (S 38)
Date Horaire Temp. E. Hum. E. P.atmo. Pluie Vent 1mn Direction Ensoleilleme Ev.Tr. Solaire P. de rose Temp au vent Rafales
15/09/2008 00:00 15,2 C 78 % 1009,1 hPa 0,0 l/m 3,1 km/h (1 Bft) O-NO 0,00 h 0,025 mm 0 W/m 11,4 C 15,2 C 5,1 km/h (1 Bft)
15/09/2008 01:00 15,1 C 78 % 1009,0 hPa 0,0 l/m 3,3 km/h (1 Bft) O-NO 0,00 h 0,025 mm 0 W/m 11,3 C 15,1 C 5,5 km/h (1 Bft)
15/09/2008 02:00 14,8 C 78 % 1008,8 hPa 0,0 l/m 4,9 km/h (1 Bft) O-NO 0,00 h 0,025 mm 0 W/m 11,0 C 14,8 C 8,0 km/h (2 Bft)
15/09/2008 03:00 14,8 C 75 % 1008,4 hPa 0,0 l/m 6,0 km/h (2 Bft) O-NO 0,00 h 0,025 mm 0 W/m 10,4 C 14,8 C 9,3 km/h (2 Bft)
15/09/2008 04:00 14,8 C 72 % 1007,9 hPa 0,0 l/m 6,4 km/h (2 Bft) O-NO 0,00 h 0,051 mm 0 W/m 9,9 C 14,8 C 9,5 km/h (2 Bft)
15/09/2008 05:00 14,5 C 72 % 1007,4 hPa 0,0 l/m 9,3 km/h (2 Bft) O-NO 0,00 h 0,051 mm 0 W/m 9,6 C 14,5 C 12,9 km/h (3 Bft)
15/09/2008 06:00 14,0 C 73 % 1006,6 hPa 0,0 l/m 4,7 km/h (1 Bft) O-NO 0,00 h 0,051 mm 0 W/m 9,2 C 14,0 C 7,0 km/h (2 Bft)
15/09/2008 07:00 14,0 C 74 % 1006,3 hPa 0,0 l/m 3,8 km/h (1 Bft) O-NO 0,02 h 0,025 mm 15 W/m 9,4 C 14,0 C 6,2 km/h (2 Bft)
15/09/2008 08:00 15,7 C 70 % 1005,9 hPa 0,0 l/m 0,4 km/h (0 Bft) N-NO 0,23 h 0,025 mm 84 W/m 10,2 C 15,7 C 0,8 km/h (0 Bft)
15/09/2008 09:00 19,3 C 59 % 1005,1 hPa 0,0 l/m 4,1 km/h (1 Bft) E 1,00 h 0,051 mm 345 W/m 11,1 C 19,3 C 6,4 km/h (2 Bft)
15/09/2008 10:00 21,3 C 55 % 1004,8 hPa 0,0 l/m 9,4 km/h (2 Bft) E-NE 1,00 h 0,229 mm 505 W/m 11,9 C 21,3 C 13,7 km/h (3 Bft)
15/09/2008 11:00 22,2 C 55 % 1005,2 hPa 0,0 l/m 15,2 km/h (3 Bft) E-NE 1,00 h 0,381 mm 630 W/m 12,7 C 22,2 C 21,3 km/h (4 Bft)
15/09/2008 12:00 21,2 C 62 % 1005,3 hPa 0,0 l/m 10,0 km/h (2 Bft) E 0,65 h 0,483 mm 471 W/m 13,7 C 21,2 C 16,2 km/h (3 Bft)
15/09/2008 13:00 21,7 C 62 % 1005,7 hPa 0,0 l/m 10,2 km/h (2 Bft) E 0,52 h 0,330 mm 430 W/m 14,1 C 21,7 C 15,8 km/h (3 Bft)
15/09/2008 14:00 20,5 C 64 % 1006,3 hPa 0,0 l/m 12,9 km/h (3 Bft) E 0,13 h 0,356 mm 240 W/m 13,4 C 20,5 C 20,4 km/h (4 Bft)
15/09/2008 15:00 22,8 C 47 % 1006,5 hPa 0,0 l/m 6,6 km/h (2 Bft) E 0,75 h 0,229 mm 560 W/m 11,0 C 22,8 C 11,0 km/h (2 Bft)
15/09/2008 16:00 22,6 C 45 % 1006,7 hPa 0,0 l/m 7,5 km/h (2 Bft) S 0,95 h 0,406 mm 482 W/m 10,1 C 22,6 C 11,2 km/h (2 Bft)
15/09/2008 17:00 22,0 C 45 % 1006,8 hPa 0,0 l/m 6,8 km/h (2 Bft) E 0,38 h 0,356 mm 199 W/m 9,4 C 22,0 C 11,7 km/h (2 Bft)
15/09/2008 18:00 20,7 C 45 % 1007,4 hPa 0,0 l/m 4,9 km/h (1 Bft) S-SE 0,03 h 0,178 mm 71 W/m 8,4 C 20,7 C 8,6 km/h (2 Bft)
15/09/2008 19:00 19,6 C 52 % 1008,1 hPa 0,0 l/m 6,2 km/h (2 Bft) S-SE 0,00 h 0,102 mm 11 W/m 9,4 C 19,6 C 9,5 km/h (2 Bft)
15/09/2008 20:00 19,0 C 60 % 1008,6 hPa 0,0 l/m 4,6 km/h (1 Bft) S 0,00 h 0,051 mm 0 W/m 11,0 C 19,0 C 6,6 km/h (2 Bft)
15/09/2008 21:00 18,5 C 64 % 1009,1 hPa 0,0 l/m 5,3 km/h (1 Bft) O-SO 0,00 h 0,051 mm 0 W/m 11,4 C 18,5 C 7,4 km/h (2 Bft)
15/09/2008 22:00 18,1 C 65 % 1009,5 hPa 0,0 l/m 7,4 km/h (2 Bft) SO 0,00 h 0,051 mm 0 W/m 11,5 C 18,1 C 9,7 km/h (2 Bft)
15/09/2008 23:00 17,2 C 67 % 1009,3 hPa 0,0 l/m 10,4 km/h (2 Bft) O-SO 0,00 h 0,051 mm 0 W/m 11,2 C 17,2 C 14,7 km/h (3 Bft)
16/09/2008 00:00 16,1 C 71 % 1009,2 hPa 0,0 l/m 11,0 km/h (2 Bft) O-SO 0,00 h 0,076 mm 0 W/m 10,8 C 16,1 C 14,7 km/h (3 Bft)
16/09/2008 01:00 15,5 C 70 % 1009,2 hPa 0,0 l/m 9,7 km/h (2 Bft) O-SO 0,00 h 0,051 mm 0 W/m 10,0 C 15,5 C 12,9 km/h (3 Bft)
16/09/2008 02:00 15,3 C 67 % 1009,1 hPa 0,0 l/m 2,8 km/h (1 Bft) O-SO 0,00 h 0,051 mm 0 W/m 9,3 C 15,3 C 4,5 km/h (1 Bft)
16/09/2008 03:00 14,8 C 70 % 1008,9 hPa 0,0 l/m 3,2 km/h (1 Bft) O-SO 0,00 h 0,051 mm 0 W/m 9,2 C 14,8 C 5,5 km/h (1 Bft)
16/09/2008 04:00 14,4 C 70 % 1008,6 hPa 0,0 l/m 3,0 km/h (1 Bft) NO 0,00 h 0,051 mm 0 W/m 9,0 C 14,4 C 5,1 km/h (1 Bft)
16/09/2008 05:00 14,2 C 70 % 1008,6 hPa 0,0 l/m 2,7 km/h (1 Bft) NO 0,00 h 0,025 mm 0 W/m 8,8 C 14,2 C 4,3 km/h (1 Bft)
16/09/2008 06:00 14,0 C 71 % 1009,1 hPa 0,0 l/m 2,7 km/h (1 Bft) O-NO 0,00 h 0,025 mm 0 W/m 8,8 C 14,0 C 4,3 km/h (1 Bft)
16/09/2008 07:00 14,0 C 72 % 1009,3 hPa 0,0 l/m 6,5 km/h (2 Bft) O-NO 0,00 h 0,025 mm 24 W/m 9,0 C 14,0 C 9,5 km/h (2 Bft)
16/09/2008 08:00 15,0 C 70 % 1009,4 hPa 0,0 l/m 8,3 km/h (2 Bft) O-NO 0,00 h 0,051 mm 65 W/m 9,5 C 15,0 C 11,7 km/h (2 Bft)
16/09/2008 09:00 17,4 C 62 % 1009,6 hPa 0,0 l/m 2,2 km/h (1 Bft) O-NO 0,57 h 0,076 mm 264 W/m 10,1 C 17,4 C 4,1 km/h (1 Bft)
16/09/2008 10:00 19,3 C 55 % 1010,0 hPa 0,0 l/m 2,6 km/h (1 Bft) E 0,42 h 0,152 mm 287 W/m 10,0 C 19,3 C 4,6 km/h (1 Bft)
16/09/2008 11:00 21,4 C 46 % 1010,2 hPa 0,0 l/m 7,3 km/h (2 Bft) S 0,68 h 0,178 mm 539 W/m 9,4 C 21,4 C 11,5 km/h (2 Bft)
16/09/2008 12:00 21,1 C 50 % 1010,5 hPa 0,0 l/m 7,8 km/h (2 Bft) E 0,15 h 0,381 mm 321 W/m 10,3 C 21,1 C 12,4 km/h (3 Bft)
16/09/2008 13:00 22,4 C 49 % 1010,1 hPa 0,0 l/m 11,5 km/h (2 Bft) E 0,97 h 0,279 mm 743 W/m 11,1 C 22,4 C 17,6 km/h (3 Bft)
16/09/2008 14:00 22,6 C 48 % 1010,1 hPa 0,0 l/m 9,9 km/h (2 Bft) S 1,00 h 0,533 mm 733 W/m 11,1 C 22,6 C 16,8 km/h (3 Bft)
16/09/2008 15:00 21,9 C 43 % 1010,2 hPa 0,0 l/m 11,4 km/h (2 Bft) S-SE 0,72 h 0,508 mm 541 W/m 8,9 C 21,9 C 18,1 km/h (3 Bft)
16/09/2008 16:00 21,3 C 46 % 1010,2 hPa 0,0 l/m 11,1 km/h (2 Bft) S-SE 0,68 h 0,406 mm 382 W/m 9,2 C 21,3 C 16,5 km/h (3 Bft)
16/09/2008 17:00 21,1 C 46 % 1010,3 hPa 0,0 l/m 8,7 km/h (2 Bft) S-SE 1,00 h 0,330 mm 322 W/m 9,0 C 21,1 C 13,7 km/h (3 Bft)
16/09/2008 18:00 20,2 C 49 % 1010,5 hPa 0,0 l/m 7,8 km/h (2 Bft) S-SE 0,60 h 0,254 mm 131 W/m 9,0 C 20,2 C 11,3 km/h (2 Bft)
16/09/2008 19:00 18,1 C 57 % 1011,0 hPa 0,0 l/m 4,5 km/h (1 Bft) S-SO 0,00 h 0,127 mm 14 W/m 9,6 C 18,1 C 6,5 km/h (2 Bft)
16/09/2008 20:00 16,5 C 64 % 1011,7 hPa 0,0 l/m 2,7 km/h (1 Bft) NO 0,00 h 0,051 mm 0 W/m 9,6 C 16,5 C 4,6 km/h (1 Bft)
16/09/2008 21:00 15,7 C 67 % 1012,1 hPa 0,0 l/m 7,1 km/h (2 Bft) O-NO 0,00 h 0,051 mm 0 W/m 9,5 C 15,7 C 9,2 km/h (2 Bft)
16/09/2008 22:00 15,5 C 68 % 1012,3 hPa 0,0 l/m 10,9 km/h (2 Bft) O-NO 0,00 h 0,051 mm 0 W/m 9,6 C 15,5 C 14,8 km/h (3 Bft)
16/09/2008 23:00 15,3 C 68 % 1012,6 hPa 0,0 l/m 7,7 km/h (2 Bft) O-NO 0,00 h 0,076 mm 0 W/m 9,4 C 15,3 C 11,2 km/h (2 Bft)
17/09/2008 00:00 14,5 C 72 % 1012,9 hPa 0,0 l/m 1,9 km/h (1 Bft) N-NO 0,00 h 0,051 mm 0 W/m 9,5 C 14,5 C 4,1 km/h (1 Bft)
17/09/2008 01:00 14,5 C 73 % 1013,3 hPa 0,0 l/m 6,1 km/h (2 Bft) O 0,00 h 0,025 mm 0 W/m 9,8 C 14,5 C 8,2 km/h (2 Bft)
17/09/2008 02:00 14,3 C 73 % 1013,3 hPa 0,0 l/m 5,0 km/h (1 Bft) O-NO 0,00 h 0,051 mm 0 W/m 9,5 C 14,3 C 7,6 km/h (2 Bft)
17/09/2008 03:00 14,1 C 72 % 1013,0 hPa 0,0 l/m 5,3 km/h (1 Bft) NO 0,00 h 0,051 mm 0 W/m 9,2 C 14,1 C 7,6 km/h (2 Bft)
17/09/2008 04:00 13,9 C 74 % 1013,0 hPa 0,0 l/m 4,7 km/h (1 Bft) O-NO 0,00 h 0,051 mm 0 W/m 9,3 C 13,9 C 6,1 km/h (2 Bft)
17/09/2008 05:00 13,6 C 72 % 1013,1 hPa 0,0 l/m 7,0 km/h (2 Bft) O-NO 0,00 h 0,025 mm 0 W/m 8,5 C 13,6 C 9,5 km/h (2 Bft)
17/09/2008 06:00 13,4 C 70 % 1013,4 hPa 0,0 l/m 5,3 km/h (1 Bft) O-NO 0,00 h 0,051 mm 0 W/m 7,9 C 13,4 C 7,3 km/h (2 Bft)
17/09/2008 07:00 13,2 C 69 % 1013,7 hPa 0,0 l/m 4,6 km/h (1 Bft) NO 0,03 h 0,025 mm 17 W/m 7,7 C 13,2 C 7,2 km/h (2 Bft)
17/09/2008 08:00 15,0 C 67 % 1014,1 hPa 0,0 l/m 1,1 km/h (1 Bft) NO 0,32 h 0,025 mm 97 W/m 8,8 C 15,0 C 1,9 km/h (1 Bft)
17/09/2008 09:00 18,4 C 58 % 1014,2 hPa 0,0 l/m 1,8 km/h (1 Bft) NE 1,00 h 0,051 mm 337 W/m 10,1 C 18,4 C 3,6 km/h (1 Bft)
17/09/2008 10:00 20,6 C 56 % 1014,5 hPa 0,0 l/m 5,1 km/h (1 Bft) S 1,00 h 0,203 mm 489 W/m 11,5 C 20,6 C 8,4 km/h (2 Bft)
17/09/2008 11:00 22,2 C 53 % 1014,7 hPa 0,0 l/m 7,2 km/h (2 Bft) S 1,00 h 0,330 mm 613 W/m 12,0 C 22,2 C 11,8 km/h (2 Bft)
17/09/2008 12:00 23,4 C 45 % 1014,5 hPa 0,0 l/m 13,7 km/h (3 Bft) S 1,00 h 0,432 mm 676 W/m 10,6 C 23,4 C 19,7 km/h (3 Bft)
17/09/2008 13:00 24,1 C 39 % 1014,2 hPa 0,0 l/m 19,8 km/h (4 Bft) S 1,00 h 0,533 mm 685 W/m 9,4 C 24,1 C 26,8 km/h (4 Bft)
17/09/2008 14:00 24,0 C 44 % 1013,9 hPa 0,0 l/m 22,2 km/h (4 Bft) S 1,00 h 0,610 mm 686 W/m 10,9 C 24,0 C 29,7 km/h (5 Bft)
17/09/2008 15:00 23,6 C 46 % 1013,6 hPa 0,0 l/m 22,4 km/h (4 Bft) S 1,00 h 0,610 mm 593 W/m 11,2 C 23,6 C 30,9 km/h (5 Bft)
17/09/2008 16:00 22,7 C 48 % 1013,7 hPa 0,0 l/m 21,8 km/h (4 Bft) S 1,00 h 0,559 mm 427 W/m 11,2 C 22,7 C 29,3 km/h (5 Bft)
17/09/2008 17:00 22,0 C 57 % 1013,8 hPa 0,0 l/m 19,3 km/h (3 Bft) S 1,00 h 0,432 mm 299 W/m 13,0 C 22,0 C 26,1 km/h (4 Bft)
17/09/2008 18:00 21,3 C 59 % 1014,0 hPa 0,0 l/m 15,8 km/h (3 Bft) S-SO 0,97 h 0,305 mm 140 W/m 12,9 C 21,3 C 20,8 km/h (4 Bft)
17/09/2008 19:00 19,6 C 63 % 1014,2 hPa 0,0 l/m 1,7 km/h (1 Bft) SO 0,02 h 0,178 mm 16 W/m 12,4 C 19,6 C 3,0 km/h (1 Bft)
17/09/2008 20:00 18,3 C 68 % 1014,7 hPa 0,0 l/m 0,8 km/h (0 Bft) SO 0,00 h 0,025 mm 0 W/m 12,4 C 18,3 C 1,7 km/h (1 Bft)
17/09/2008 21:00 17,2 C 71 % 1015,2 hPa 0,0 l/m 2,0 km/h (1 Bft) NO 0,00 h 0,025 mm 0 W/m 12,0 C 17,2 C 3,3 km/h (1 Bft)
17/09/2008 22:00 16,4 C 74 % 1015,3 hPa 0,0 l/m 1,6 km/h (1 Bft) NO 0,00 h 0,025 mm 0 W/m 11,7 C 16,4 C 3,2 km/h (1 Bft)
17/09/2008 23:00 16,1 C 75 % 1015,5 hPa 0,0 l/m 1,9 km/h (1 Bft) NO 0,00 h 0,025 mm 0 W/m 11,7 C 16,1 C 3,4 km/h (1 Bft)
18/09/2008 00:00 15,9 C 75 % 1015,8 hPa 0,0 l/m 2,9 km/h (1 Bft) NO 0,00 h 0,025 mm 0 W/m 11,4 C 15,9 C 4,7 km/h (1 Bft)
18/09/2008 01:00 16,1 C 73 % 1016,0 hPa 0,0 l/m 4,3 km/h (1 Bft) O-NO 0,00 h 0,025 mm 0 W/m 11,3 C 16,1 C 5,9 km/h (2 Bft)
18/09/2008 02:00 15,4 C 73 % 1016,4 hPa 0,0 l/m 4,2 km/h (1 Bft) O-NO 0,00 h 0,051 mm 0 W/m 10,6 C 15,4 C 5,8 km/h (2 Bft)
18/09/2008 03:00 15,2 C 72 % 1016,3 hPa 0,0 l/m 3,5 km/h (1 Bft) O-NO 0,00 h 0,025 mm 0 W/m 10,2 C 15,2 C 5,7 km/h (1 Bft)
18/09/2008 04:00 15,0 C 73 % 1016,3 hPa 0,0 l/m 5,0 km/h (1 Bft) O-NO 0,00 h 0,025 mm 0 W/m 10,3 C 15,0 C 7,7 km/h (2 Bft)
18/09/2008 05:00 15,1 C 74 % 1016,3 hPa 0,0 l/m 4,9 km/h (1 Bft) O-NO 0,00 h 0,051 mm 0 W/m 10,6 C 15,1 C 8,0 km/h (2 Bft)
18/09/2008 06:00 15,0 C 76 % 1016,5 hPa 0,0 l/m 3,8 km/h (1 Bft) NO 0,00 h 0,051 mm 0 W/m 10,8 C 15,0 C 5,9 km/h (2 Bft)
18/09/2008 07:00 14,8 C 76 % 1016,7 hPa 0,0 l/m 3,0 km/h (1 Bft) NO 0,08 h 0,025 mm 26 W/m 10,6 C 14,8 C 4,5 km/h (1 Bft)
18/09/2008 08:00 16,0 C 73 % 1017,2 hPa 0,0 l/m 1,7 km/h (1 Bft) O-NO 0,25 h 0,025 mm 106 W/m 11,1 C 16,0 C 2,7 km/h (1 Bft)
18/09/2008 09:00 19,2 C 61 % 1017,5 hPa 0,0 l/m 1,1 km/h (0 Bft) N 1,00 h 0,076 mm 307 W/m 11,5 C 19,2 C 2,7 km/h (1 Bft)
18/09/2008 10:00 21,6 C 60 % 1017,6 hPa 0,0 l/m 4,9 km/h (1 Bft) E-NE 1,00 h 0,178 mm 452 W/m 13,4 C 21,6 C 7,9 km/h (2 Bft)
18/09/2008 11:00 22,2 C 57 % 1017,8 hPa 0,0 l/m 6,0 km/h (2 Bft) E-SE 0,47 h 0,305 mm 404 W/m 13,4 C 22,2 C 9,8 km/h (2 Bft)
18/09/2008 12:00 22,4 C 55 % 1017,7 hPa 0,0 l/m 6,5 km/h (2 Bft) E 0,07 h 0,305 mm 328 W/m 12,8 C 22,4 C 10,8 km/h (2 Bft)
18/09/2008 13:00 23,8 C 54 % 1017,4 hPa 0,0 l/m 8,3 km/h (2 Bft) S 0,57 h 0,254 mm 539 W/m 13,8 C 23,8 C 12,7 km/h (3 Bft)
18/09/2008 14:00 21,6 C 67 % 1017,4 hPa 0,0 l/m 12,6 km/h (3 Bft) S 0,07 h 0,381 mm 182 W/m 15,2 C 21,6 C 18,2 km/h (3 Bft)
18/09/2008 15:00 20,8 C 71 % 1017,2 hPa 0,0 l/m 12,9 km/h (3 Bft) S 0,00 h 0,178 mm 75 W/m 15,4 C 20,8 C 17,7 km/h (3 Bft)
18/09/2008 16:00 20,4 C 71 % 1017,2 hPa 0,0 l/m 10,6 km/h (2 Bft) S-SO 0,00 h 0,102 mm 45 W/m 15,0 C 20,4 C 14,5 km/h (3 Bft)
18/09/2008 17:00 20,7 C 70 % 1017,0 hPa 0,0 l/m 8,9 km/h (2 Bft) S 0,00 h 0,076 mm 94 W/m 15,1 C 20,7 C 12,4 km/h (3 Bft)
18/09/2008 18:00 20,7 C 73 % 1016,9 hPa 0,0 l/m 8,2 km/h (2 Bft) S 0,00 h 0,102 mm 27 W/m 15,7 C 20,7 C 11,4 km/h (2 Bft)
18/09/2008 19:00 20,2 C 74 % 1016,7 hPa 0,0 l/m 1,2 km/h (1 Bft) S-SO 0,00 h 0,051 mm 9 W/m 15,5 C 20,2 C 1,7 km/h (1 Bft)
18/09/2008 20:00 19,7 C 74 % 1016,4 hPa 0,0 l/m 0,0 km/h (0 Bft) S-SO 0,00 h 0,025 mm 0 W/m 14,9 C 19,7 C 0,1 km/h (0 Bft)
18/09/2008 21:00 18,9 C 76 % 1016,0 hPa 0,0 l/m 0,3 km/h (0 Bft) O-NO 0,00 h 0,025 mm 0 W/m 14,7 C 18,9 C 1,2 km/h (1 Bft)
18/09/2008 22:00 18,6 C 79 % 1016,4 hPa 0,0 l/m 0,5 km/h (0 Bft) O-NO 0,00 h 0,025 mm 0 W/m 14,9 C 18,6 C 1,7 km/h (1 Bft)
18/09/2008 23:00 18,5 C 81 % 1016,8 hPa 0,4 l/m 0,5 km/h (0 Bft) N 0,00 h 0,025 mm 0 W/m 15,1 C 18,5 C 1,6 km/h (1 Bft)
19/09/2008 00:00 18,1 C 84 % 1016,6 hPa 1,6 l/m 1,2 km/h (1 Bft) N 0,00 h 0,025 mm 0 W/m 15,3 C 18,1 C 2,5 km/h (1 Bft)
19/09/2008 01:00 17,6 C 88 % 1016,0 hPa 1,0 l/m 1,7 km/h (1 Bft) N 0,00 h 0,025 mm 0 W/m 15,5 C 17,6 C 3,6 km/h (1 Bft)
19/09/2008 02:00 17,4 C 91 % 1015,9 hPa 4,8 l/m 6,0 km/h (2 Bft) O-SO 0,00 h 0,025 mm 0 W/m 15,8 C 17,4 C 8,2 km/h (2 Bft)
19/09/2008 03:00 17,2 C 93 % 1015,8 hPa 3,8 l/m 5,7 km/h (1 Bft) O-NO 0,00 h 0,025 mm 0 W/m 16,0 C 17,2 C 7,7 km/h (2 Bft)
19/09/2008 04:00 16,7 C 94 % 1015,1 hPa 0,4 l/m 1,9 km/h (1 Bft) O-NO 0,00 h 0,025 mm 0 W/m 15,7 C 16,7 C 3,2 km/h (1 Bft)
19/09/2008 05:00 16,1 C 94 % 1014,5 hPa 0,0 l/m 0,5 km/h (0 Bft) N-NE 0,00 h 0,000 mm 0 W/m 15,2 C 16,1 C 1,3 km/h (1 Bft)
19/09/2008 06:00 16,1 C 95 % 1013,8 hPa 0,2 l/m 3,2 km/h (1 Bft) SO 0,00 h 0,000 mm 0 W/m 15,3 C 16,1 C 4,7 km/h (1 Bft)
19/09/2008 07:00 15,6 C 95 % 1014,0 hPa 0,0 l/m 0,5 km/h (0 Bft) N-NO 0,00 h 0,000 mm 21 W/m 14,8 C 15,6 C 0,8 km/h (0 Bft)
19/09/2008 08:00 16,0 C 95 % 1014,0 hPa 0,0 l/m 0,5 km/h (0 Bft) N-NO 0,07 h 0,000 mm 86 W/m 15,2 C 16,0 C 1,0 km/h (0 Bft)
19/09/2008 09:00 17,1 C 96 % 1014,1 hPa 0,0 l/m 0,6 km/h (0 Bft) N-NO 0,05 h 0,051 mm 181 W/m 16,4 C 17,1 C 1,6 km/h (1 Bft)
19/09/2008 10:00 17,8 C 96 % 1014,3 hPa 0,0 l/m 3,0 km/h (1 Bft) NE 0,03 h 0,102 mm 187 W/m 17,2 C 17,8 C 5,1 km/h (1 Bft)
19/09/2008 11:00 17,9 C 96 % 1014,5 hPa 0,0 l/m 4,3 km/h (1 Bft) NE 0,00 h 0,102 mm 91 W/m 17,2 C 17,9 C 7,1 km/h (2 Bft)
19/09/2008 12:00 18,0 C 95 % 1014,6 hPa 0,2 l/m 1,5 km/h (1 Bft) E 0,00 h 0,051 mm 155 W/m 17,2 C 18,0 C 2,8 km/h (1 Bft)
19/09/2008 13:00 19,9 C 87 % 1014,6 hPa 0,0 l/m 5,4 km/h (1 Bft) E 0,42 h 0,076 mm 432 W/m 17,6 C 19,9 C 8,1 km/h (2 Bft)
19/09/2008 14:00 19,6 C 85 % 1014,7 hPa 0,0 l/m 12,7 km/h (3 Bft) E 0,03 h 0,279 mm 135 W/m 17,0 C 19,6 C 19,1 km/h (3 Bft)
19/09/2008 15:00 17,9 C 90 % 1014,9 hPa 2,2 l/m 12,7 km/h (3 Bft) E 0,00 h 0,102 mm 29 W/m 16,3 C 17,9 C 20,5 km/h (4 Bft)
19/09/2008 16:00 17,0 C 93 % 1015,3 hPa 3,6 l/m 8,8 km/h (2 Bft) E 0,00 h 0,051 mm 30 W/m 15,9 C 17,0 C 13,1 km/h (3 Bft)
19/09/2008 17:00 17,6 C 94 % 1015,5 hPa 0,0 l/m 3,2 km/h (1 Bft) O-SO 0,08 h 0,025 mm 118 W/m 16,7 C 17,6 C 4,6 km/h (1 Bft)
19/09/2008 18:00 17,3 C 95 % 1015,6 hPa 0,0 l/m 0,9 km/h (0 Bft) O-NO 0,02 h 0,076 mm 53 W/m 16,4 C 17,3 C 1,5 km/h (1 Bft)
19/09/2008 19:00 16,4 C 95 % 1015,6 hPa 0,0 l/m 1,2 km/h (1 Bft) NO 0,02 h 0,025 mm 12 W/m 15,6 C 16,4 C 2,3 km/h (1 Bft)
19/09/2008 20:00 15,9 C 95 % 1015,9 hPa 0,0 l/m 3,6 km/h (1 Bft) O-NO 0,00 h 0,000 mm 0 W/m 15,1 C 15,9 C 5,2 km/h (1 Bft)
19/09/2008 21:00 15,3 C 95 % 1016,4 hPa 0,0 l/m 7,2 km/h (2 Bft) O 0,00 h 0,000 mm 0 W/m 14,5 C 15,3 C 9,4 km/h (2 Bft)
19/09/2008 22:00 14,9 C 95 % 1016,7 hPa 0,0 l/m 7,0 km/h (2 Bft) O-NO 0,00 h 0,025 mm 0 W/m 14,1 C 14,9 C 8,7 km/h (2 Bft)
19/09/2008 23:00 14,5 C 95 % 1016,8 hPa 0,0 l/m 5,0 km/h (1 Bft) O-NO 0,00 h 0,025 mm 0 W/m 13,7 C 14,5 C 6,7 km/h (2 Bft)
20/09/2008 00:00 14,6 C 95 % 1016,8 hPa 0,0 l/m 3,7 km/h (1 Bft) O-NO 0,00 h 0,025 mm 0 W/m 13,8 C 14,6 C 4,7 km/h (1 Bft)
20/09/2008 01:00 14,4 C 95 % 1016,7 hPa 0,2 l/m 4,9 km/h (1 Bft) O-NO 0,00 h 0,000 mm 0 W/m 13,6 C 14,4 C 6,5 km/h (2 Bft)
20/09/2008 02:00 13,8 C 95 % 1016,8 hPa 0,0 l/m 9,3 km/h (2 Bft) O-NO 0,00 h 0,025 mm 0 W/m 12,9 C 13,8 C 12,5 km/h (3 Bft)
20/09/2008 03:00 13,4 C 94 % 1016,8 hPa 0,0 l/m 6,5 km/h (2 Bft) O-NO 0,00 h 0,025 mm 0 W/m 12,4 C 13,4 C 8,6 km/h (2 Bft)
20/09/2008 04:00 13,7 C 93 % 1016,8 hPa 0,0 l/m 3,3 km/h (1 Bft) N-NO 0,00 h 0,025 mm 0 W/m 12,6 C 13,7 C 5,0 km/h (1 Bft)
20/09/2008 05:00 13,9 C 92 % 1016,8 hPa 0,0 l/m 3,8 km/h (1 Bft) NO 0,00 h 0,025 mm 0 W/m 12,6 C 13,9 C 5,4 km/h (1 Bft)
20/09/2008 06:00 14,2 C 91 % 1016,8 hPa 0,0 l/m 3,5 km/h (1 Bft) NO 0,00 h 0,025 mm 0 W/m 12,8 C 14,2 C 4,7 km/h (1 Bft)
20/09/2008 07:00 13,9 C 91 % 1017,0 hPa 0,0 l/m 4,8 km/h (1 Bft) NO 0,05 h 0,000 mm 23 W/m 12,4 C 13,9 C 6,9 km/h (2 Bft)
20/09/2008 08:00 15,4 C 90 % 1017,3 hPa 0,0 l/m 2,3 km/h (1 Bft) NO 0,18 h 0,025 mm 94 W/m 13,8 C 15,4 C 4,4 km/h (1 Bft)
20/09/2008 09:00 18,1 C 81 % 1017,3 hPa 0,0 l/m 2,7 km/h (1 Bft) O-NO 0,83 h 0,051 mm 291 W/m 14,7 C 18,1 C 4,4 km/h (1 Bft)
20/09/2008 10:00 20,7 C 74 % 1017,4 hPa 0,0 l/m 3,3 km/h (1 Bft) E 1,00 h 0,178 mm 478 W/m 15,9 C 20,7 C 5,5 km/h (1 Bft)
20/09/2008 11:00 21,5 C 69 % 1017,5 hPa 0,0 l/m 4,6 km/h (1 Bft) E-SE 0,70 h 0,305 mm 522 W/m 15,5 C 21,5 C 7,4 km/h (2 Bft)
20/09/2008 12:00 22,2 C 65 % 1017,4 hPa 0,0 l/m 7,7 km/h (2 Bft) E 0,33 h 0,330 mm 424 W/m 15,2 C 22,2 C 12,6 km/h (3 Bft)
20/09/2008 13:00 22,4 C 64 % 1017,1 hPa 0,0 l/m 7,0 km/h (2 Bft) E 0,72 h 0,330 mm 630 W/m 15,3 C 22,4 C 12,0 km/h (2 Bft)
20/09/2008 14:00 22,6 C 64 % 1016,6 hPa 0,0 l/m 10,3 km/h (2 Bft) E 0,68 h 0,432 mm 564 W/m 15,4 C 22,6 C 16,1 km/h (3 Bft)
20/09/2008 15:00 21,4 C 70 % 1016,5 hPa 0,0 l/m 8,2 km/h (2 Bft) E 0,22 h 0,381 mm 303 W/m 15,5 C 21,4 C 13,3 km/h (3 Bft)
20/09/2008 16:00 20,2 C 75 % 1016,3 hPa 0,0 l/m 6,4 km/h (2 Bft) E 0,00 h 0,229 mm 112 W/m 15,7 C 20,2 C 10,5 km/h (2 Bft)
20/09/2008 17:00 19,6 C 77 % 1016,2 hPa 0,0 l/m 3,7 km/h (1 Bft) E 0,00 h 0,102 mm 44 W/m 15,4 C 19,6 C 6,4 km/h (2 Bft)
20/09/2008 18:00 18,4 C 78 % 1016,3 hPa 0,2 l/m 8,0 km/h (2 Bft) O-SO 0,00 h 0,051 mm 11 W/m 14,5 C 18,4 C 12,0 km/h (2 Bft)
20/09/2008 19:00 15,8 C 86 % 1016,9 hPa 8,6 l/m 6,1 km/h (2 Bft) O 0,00 h 0,025 mm 0 W/m 13,4 C 15,8 C 8,1 km/h (2 Bft)
20/09/2008 20:00 15,6 C 90 % 1017,2 hPa 1,2 l/m 6,3 km/h (2 Bft) O-NO 0,00 h 0,025 mm 0 W/m 14,0 C 15,6 C 8,0 km/h (2 Bft)
20/09/2008 21:00 15,6 C 92 % 1017,2 hPa 0,0 l/m 9,8 km/h (2 Bft) O-NO 0,00 h 0,025 mm 0 W/m 14,4 C 15,6 C 12,8 km/h (3 Bft)
20/09/2008 22:00 16,0 C 93 % 1017,1 hPa 0,0 l/m 10,3 km/h (2 Bft) O-NO 0,00 h 0,025 mm 0 W/m 14,9 C 16,0 C 13,9 km/h (3 Bft)
20/09/2008 23:00 16,0 C 93 % 1017,0 hPa 0,0 l/m 9,5 km/h (2 Bft) O-NO 0,00 h 0,025 mm 0 W/m 14,8 C 16,0 C 12,9 km/h (3 Bft)
21/09/2008 00:00 15,7 C 94 % 1017,0 hPa 0,0 l/m 3,1 km/h (1 Bft) NO 0,00 h 0,025 mm 0 W/m 14,8 C 15,7 C 4,8 km/h (1 Bft)
21/09/2008 01:00 15,7 C 94 % 1016,9 hPa 0,0 l/m 2,8 km/h (1 Bft) NE 0,00 h 0,025 mm 0 W/m 14,8 C 15,7 C 5,0 km/h (1 Bft)
21/09/2008 02:00 15,4 C 93 % 1016,7 hPa 0,0 l/m 1,8 km/h (1 Bft) N 0,00 h 0,025 mm 0 W/m 14,3 C 15,4 C 3,7 km/h (1 Bft)
21/09/2008 03:00 15,2 C 94 % 1016,4 hPa 0,0 l/m 3,2 km/h (1 Bft) N-NE 0,00 h 0,025 mm 0 W/m 14,3 C 15,2 C 5,7 km/h (1 Bft)
21/09/2008 04:00 15,3 C 94 % 1015,9 hPa 0,0 l/m 3,1 km/h (1 Bft) N 0,00 h 0,025 mm 0 W/m 14,4 C 15,3 C 5,8 km/h (2 Bft)
21/09/2008 05:00 15,3 C 94 % 1015,4 hPa 0,0 l/m 2,0 km/h (1 Bft) N-NE 0,00 h 0,025 mm 0 W/m 14,4 C 15,3 C 4,1 km/h (1 Bft)
21/09/2008 06:00 15,1 C 93 % 1015,3 hPa 4,6 l/m 9,2 km/h (2 Bft) O-NO 0,00 h 0,000 mm 0 W/m 14,1 C 15,1 C 13,6 km/h (3 Bft)
21/09/2008 07:00 14,2 C 94 % 1016,0 hPa 14,2 l/m 5,7 km/h (1 Bft) SO 0,00 h 0,025 mm 6 W/m 13,3 C 14,2 C 8,1 km/h (2 Bft)
21/09/2008 08:00 13,6 C 95 % 1016,3 hPa 3,2 l/m 4,6 km/h (1 Bft) NO 0,00 h 0,000 mm 10 W/m 12,8 C 13,6 C 7,2 km/h (2 Bft)
21/09/2008 09:00 13,6 C 95 % 1016,0 hPa 0,2 l/m 6,1 km/h (2 Bft) NO 0,00 h 0,025 mm 63 W/m 12,8 C 13,6 C 8,5 km/h (2 Bft)
21/09/2008 10:00 15,0 C 96 % 1015,7 hPa 0,0 l/m 1,8 km/h (1 Bft) NO 0,02 h 0,051 mm 181 W/m 14,4 C 15,0 C 3,1 km/h (1 Bft)
21/09/2008 11:00 15,5 C 96 % 1015,3 hPa 0,0 l/m 0,5 km/h (0 Bft) NO 0,00 h 0,102 mm 173 W/m 14,9 C 15,5 C 1,0 km/h (0 Bft)
21/09/2008 12:00 16,6 C 89 % 1015,1 hPa 0,0 l/m 0,9 km/h (0 Bft) NE 0,02 h 0,102 mm 285 W/m 14,8 C 16,6 C 1,7 km/h (1 Bft)
21/09/2008 13:00 18,6 C 80 % 1014,3 hPa 0,0 l/m 2,7 km/h (1 Bft) E 0,38 h 0,152 mm 392 W/m 15,0 C 18,6 C 5,0 km/h (1 Bft)
21/09/2008 14:00 19,0 C 73 % 1013,3 hPa 0,0 l/m 4,1 km/h (1 Bft) E-NE 0,25 h 0,229 mm 342 W/m 14,0 C 19,0 C 6,6 km/h (2 Bft)
21/09/2008 15:00 18,4 C 74 % 1012,5 hPa 0,0 l/m 4,5 km/h (1 Bft) E 0,03 h 0,203 mm 171 W/m 13,7 C 18,4 C 7,7 km/h (2 Bft)
21/09/2008 16:00 17,9 C 76 % 1012,0 hPa 0,0 l/m 4,3 km/h (1 Bft) S-SE 0,00 h 0,127 mm 109 W/m 13,6 C 17,9 C 6,6 km/h (2 Bft)
21/09/2008 17:00 17,2 C 80 % 1011,8 hPa 0,0 l/m 2,5 km/h (1 Bft) S 0,00 h 0,076 mm 38 W/m 13,7 C 17,2 C 4,3 km/h (1 Bft)
21/09/2008 18:00 16,6 C 83 % 1011,8 hPa 0,0 l/m 1,3 km/h (1 Bft) S 0,00 h 0,025 mm 22 W/m 13,8 C 16,6 C 2,3 km/h (1 Bft)
21/09/2008 19:00 16,2 C 87 % 1011,6 hPa 0,0 l/m 3,1 km/h (1 Bft) O-NO 0,00 h 0,025 mm 8 W/m 14,0 C 16,2 C 4,7 km/h (1 Bft)
21/09/2008 20:00 15,9 C 89 % 1011,7 hPa 0,0 l/m 2,5 km/h (1 Bft) O-NO 0,00 h 0,025 mm 0 W/m 14,0 C 15,9 C 3,8 km/h (1 Bft)
21/09/2008 21:00 15,7 C 89 % 1012,1 hPa 0,0 l/m 2,1 km/h (1 Bft) O-NO 0,00 h 0,025 mm 0 W/m 13,9 C 15,7 C 3,8 km/h (1 Bft)
21/09/2008 22:00 15,7 C 90 % 1012,1 hPa 0,0 l/m 1,9 km/h (1 Bft) E 0,00 h 0,025 mm 0 W/m 14,0 C 15,7 C 3,1 km/h (1 Bft)
21/09/2008 23:00 15,4 C 91 % 1012,1 hPa 0,0 l/m 0,9 km/h (0 Bft) E 0,00 h 0,025 mm 0 W/m 14,0 C 15,4 C 1,5 km/h (1 Bft)
Min-Date _ 17/09/08 17/09/08 15/09/08 - 15/09/08 - - - - 17/09/08 17/09/08 15/09/08
_ Min-Heure 07:17 13:26 10:00 - 00:27 - - - - 07:17 07:17 06:27
Minimum _ 13,1 C 36 % 1004,8 hPa - 0,0 km/h (0 Bft) - - - - 7,3 C 13,1 C 0,0 km/h (0 Bft)
Max-Date _ 18/09/08 19/09/08 18/09/08 21/09/08 17/09/08 - 15/09/08 17/09/08 21/09/08 19/09/08 18/09/08 17/09/08
_ Max-Heure 13:19 06:27 11:30 07:21 13:52 - 07:21 14:00 13:21 13:45 13:19 13:52
Maximum _ 25,4 C 100 % 1017,8 hPa 14,2 l/m 30,6 km/h
S (5 Bft)
- 0,02 h 0,610 mm 946 W/m 18,7 C 25,4 C 40,2 km/h
S-SE (6 Bft)
Moyenne _ 17,6 C 75 % 1013,5 hPa #50,6 l/m 5,7 km/h (1 Bft) O-NO #33:25 h #19,772 mm 255 W/m 12,6 C 17,6 C 8,5 km/h (2 Bft)
Roquefort les pins